Dobrodošli na spletni strani vremenske postaje Senovo. Vse informacije so informativnega značaja, saj vremenska postaja ni del državne mreže meteoroloških postaj. OBVESTILO: Letni količini padavin navedeni na spletni strani je potrebno prišteti 98,1 mm, zaradi izgube podatkov.


Dež Od: 15-12-2017 00:00 Do: 23:59 Opozorilo za: Dež Stopnja: Rumena info button
Veter Od: 15-12-2017 00:00 Do: 17:59 Opozorilo za: Veter Stopnja: Rumena info button

Pogled proti Armezu več informacij Pogled proti Armezu


Lisca več informacij Lisca


Radar strel več informacij blitzortung!


opozorilo za Dež več informacij rain snow radar


Obiščite še:

Template documentation
and downloads

And another site



Weather Underground, zgodovina - Tekstovno

Dnevni povzetek za Avgust 11, 2017 Enote:  Metrično    Angleško   Obe
« Predhodni Dan
Naslednji Dan »
Dnevni Tedenski Mesečni Letni Po meri
  Višja: Nižja: Povprečje:
Temperatura: 30.6 °C 14.7 °C 22.2 °C
Točka rosišča: 21.5 °C 11.3 °C 17 °C
Vlažnost: 96 % 39 % 76 %
Hitrost vetra: 10.1 km/h 0.0 km/h 2.8 km/h
Sunki vetra: 23.3 km/h - -
Veter:- - SW
Zračni tlak: 1014.1 hPa 1011.1 hPa -
Padavine: 0.5 mm    
Historical Graphs
 
 
Tabelarni podarki za Avgust 11, 2017
Čas Temperatura Točka rosišča Zračni tlak Veter Hitrost vetra Sunki vetra Vlažnost Intenziteta padavin (urna)
00:01 19.4 °C 18.4 °C 1014.1 hPa ESE 1.6 km/h 4.7 km/h 94 % 0.0 mm
00:06 19.4 °C 18.4 °C 1014.1 hPa ENE 0.6 km/h 4.7 km/h 94 % 0.0 mm
00:11 19.4 °C 18.4 °C 1014.1 hPa SW 2.3 km/h 5.8 km/h 94 % 0.0 mm
00:16 19.3 °C 18.3 °C 1014.1 hPa SW 4.2 km/h 5.8 km/h 94 % 0.0 mm
00:21 19.3 °C 18.3 °C 1014.1 hPa WSW 3.2 km/h 5.5 km/h 94 % 0.0 mm
00:26 19.2 °C 18.2 °C 1014.1 hPa WNW 1.4 km/h 5.5 km/h 94 % 0.0 mm
00:31 19.2 °C 18.2 °C 1014.1 hPa West 0.6 km/h 4.7 km/h 94 % 0.0 mm
00:36 19.1 °C 18.1 °C 1014.1 hPa NNE 0.8 km/h 4.0 km/h 94 % 0.0 mm
00:41 19.1 °C 18.1 °C 1014.1 hPa ENE 1.0 km/h 4.7 km/h 94 % 0.0 mm
00:46 19.2 °C 18.2 °C 1014.1 hPa SSW 1.9 km/h 6.1 km/h 94 % 0.0 mm
00:51 19.2 °C 18.2 °C 1014.1 hPa WSW 3.9 km/h 8.7 km/h 94 % 0.0 mm
00:56 19.2 °C 18.2 °C 1014.1 hPa West 3.1 km/h 8.7 km/h 94 % 0.0 mm
01:01 19.2 °C 18.2 °C 1014.1 hPa NW 0.8 km/h 5.0 km/h 94 % 0.0 mm
01:06 19.3 °C 18.3 °C 1014.1 hPa ESE 2.3 km/h 9.3 km/h 94 % 0.0 mm
01:11 19.2 °C 18.2 °C 1014.1 hPa SSW 5.0 km/h 16.9 km/h 94 % 0.0 mm
01:16 19.2 °C 18.4 °C 1014.1 hPa WSW 6.6 km/h 16.9 km/h 95 % 0.0 mm
01:21 19.2 °C 18.4 °C 1014.1 hPa WSW 5.1 km/h 16.9 km/h 95 % 0.0 mm
01:26 19.2 °C 18.4 °C 1014.1 hPa WSW 3.5 km/h 6.9 km/h 95 % 0.0 mm
01:31 19.2 °C 18.4 °C 1014.1 hPa WSW 3.5 km/h 6.9 km/h 95 % 0.0 mm
01:36 19.2 °C 18.4 °C 1014.1 hPa South 1.1 km/h 5.8 km/h 95 % 0.0 mm
01:41 19.1 °C 18.3 °C 1014.1 hPa WNW 1.3 km/h 5.5 km/h 95 % 0.0 mm
01:46 19.1 °C 18.3 °C 1014.1 hPa WSW 2.7 km/h 5.8 km/h 95 % 0.0 mm
01:51 19.0 °C 18.0 °C 1014.1 hPa South 2.3 km/h 5.8 km/h 94 % 0.0 mm
01:56 19.0 °C 18.0 °C 1014.1 hPa SW 1.3 km/h 4.3 km/h 94 % 0.0 mm
02:01 18.9 °C 18.1 °C 1014.1 hPa North 1.4 km/h 4.0 km/h 95 % 0.0 mm
02:06 18.8 °C 18.0 °C 1014.1 hPa NNE 0.8 km/h 3.5 km/h 95 % 0.0 mm
02:11 18.8 °C 18.0 °C 1014.1 hPa Calm   4.0 km/h 95 % 0.0 mm
02:16 18.8 °C 18.0 °C 1014.1 hPa SW 2.1 km/h 6.1 km/h 95 % 0.0 mm
02:21 18.8 °C 18.0 °C 1014.1 hPa SSW 2.9 km/h 6.1 km/h 95 % 0.0 mm
02:26 18.7 °C 17.9 °C 1014.1 hPa WNW 1.6 km/h 4.7 km/h 95 % 0.0 mm
02:31 18.7 °C 17.9 °C 1014.1 hPa NW 1.1 km/h 4.7 km/h 95 % 0.0 mm
02:36 18.6 °C 17.8 °C 1013.1 hPa NW 0.6 km/h 4.3 km/h 95 % 0.0 mm
02:41 18.6 °C 17.8 °C 1013.1 hPa NE 0.2 km/h 2.6 km/h 95 % 0.0 mm
02:46 18.6 °C 17.8 °C 1013.1 hPa Calm     95 % 0.0 mm
02:51 18.6 °C 17.8 °C 1013.1 hPa Calm     95 % 0.0 mm
02:56 18.5 °C 17.7 °C 1013.1 hPa Calm     95 % 0.0 mm
03:01 18.5 °C 17.7 °C 1013.1 hPa WSW 1.3 km/h 5.5 km/h 95 % 0.0 mm
03:06 18.5 °C 17.7 °C 1013.1 hPa WSW 2.3 km/h 5.5 km/h 95 % 0.0 mm
03:11 18.5 °C 17.7 °C 1013.1 hPa WSW 1.8 km/h 4.0 km/h 95 % 0.0 mm
03:16 18.5 °C 17.7 °C 1013.1 hPa WSW 1.1 km/h 4.3 km/h 95 % 0.0 mm
03:21 18.5 °C 17.8 °C 1013.1 hPa WSW 0.5 km/h 4.3 km/h 96 % 0.0 mm
03:26 18.5 °C 17.8 °C 1013.1 hPa Calm   1.8 km/h 96 % 0.0 mm
03:31 18.5 °C 17.8 °C 1013.1 hPa WSW 0.5 km/h 3.5 km/h 96 % 0.0 mm
03:36 18.5 °C 17.8 °C 1013.1 hPa SW 1.4 km/h 4.7 km/h 96 % 0.0 mm
03:41 18.5 °C 17.8 °C 1013.1 hPa SW 2.9 km/h 6.1 km/h 96 % 0.0 mm
03:46 18.5 °C 17.8 °C 1013.1 hPa SW 2.6 km/h 6.1 km/h 96 % 0.0 mm
03:51 18.5 °C 17.8 °C 1013.1 hPa SW 0.8 km/h 4.3 km/h 96 % 0.0 mm
03:56 18.5 °C 17.8 °C 1013.1 hPa Calm   1.8 km/h 96 % 0.0 mm
04:01 18.6 °C 17.9 °C 1013.1 hPa Calm     96 % 0.0 mm
04:06 18.6 °C 17.9 °C 1012.1 hPa NNE 0.3 km/h 4.7 km/h 96 % 0.0 mm
04:11 18.6 °C 17.9 °C 1012.1 hPa NNW 1.0 km/h 4.7 km/h 96 % 0.0 mm
04:16 18.5 °C 17.8 °C 1012.1 hPa WNW 0.6 km/h 3.5 km/h 96 % 0.0 mm
04:21 18.5 °C 17.8 °C 1011.1 hPa WNW 0.2 km/h 3.2 km/h 96 % 0.0 mm
04:26 18.5 °C 17.8 °C 1011.1 hPa WSW 0.3 km/h 3.5 km/h 96 % 0.0 mm
04:31 18.5 °C 17.8 °C 1011.1 hPa SSW 0.3 km/h 3.5 km/h 96 % 0.0 mm
04:36 18.5 °C 17.8 °C 1012.1 hPa SW 1.0 km/h 4.0 km/h 96 % 0.0 mm
04:41 18.5 °C 17.8 °C 1012.1 hPa West 1.0 km/h 4.0 km/h 96 % 0.0 mm
04:46 18.5 °C 17.8 °C 1012.1 hPa NNE 0.8 km/h 3.5 km/h 96 % 0.0 mm
04:51 18.5 °C 17.8 °C 1012.1 hPa NNE 1.3 km/h 4.0 km/h 96 % 0.0 mm
04:56 18.4 °C 17.8 °C 1012.1 hPa NNE 1.8 km/h 4.7 km/h 96 % 0.0 mm
05:01 18.4 °C 17.8 °C 1012.1 hPa NNE 1.0 km/h 4.7 km/h 96 % 0.0 mm
05:06 18.4 °C 17.8 °C 1012.1 hPa Calm     96 % 0.0 mm
05:11 18.4 °C 17.8 °C 1012.1 hPa Calm     96 % 0.0 mm
05:16 18.4 °C 17.8 °C 1012.1 hPa SW 0.6 km/h 5.0 km/h 96 % 0.0 mm
05:21 18.4 °C 17.8 °C 1012.1 hPa SW 1.4 km/h 5.0 km/h 96 % 0.0 mm
05:24 18.4 °C 17.8 °C 1012.1 hPa SW 1.4 km/h 5.0 km/h 96 % 0.0 mm
05:29 18.4 °C 17.8 °C 1012.1 hPa Calm   1.8 km/h 96 % 0.0 mm
05:34 18.4 °C 17.8 °C 1013.1 hPa Calm   2.6 km/h 96 % 0.0 mm
05:39 18.4 °C 17.8 °C 1013.1 hPa South 0.2 km/h 2.6 km/h 96 % 0.0 mm
05:44 18.4 °C 17.8 °C 1013.1 hPa South 0.2 km/h 2.1 km/h 96 % 0.0 mm
05:49 18.4 °C 17.8 °C 1012.1 hPa Calm     96 % 0.0 mm
05:54 18.4 °C 17.8 °C 1012.1 hPa East 0.3 km/h 4.7 km/h 96 % 0.0 mm
05:59 18.4 °C 17.8 °C 1012.1 hPa East 0.8 km/h 4.7 km/h 96 % 0.3 mm
06:04 18.4 °C 17.8 °C 1012.1 hPa South 1.3 km/h 4.3 km/h 96 % 0.3 mm
06:09 18.4 °C 17.8 °C 1012.1 hPa South 2.6 km/h 4.3 km/h 96 % 0.3 mm
06:14 18.4 °C 17.8 °C 1012.1 hPa South 1.9 km/h 4.3 km/h 96 % 0.3 mm
06:19 18.4 °C 17.8 °C 1012.1 hPa NW 0.3 km/h 4.0 km/h 96 % 0.5 mm
06:24 18.4 °C 17.8 °C 1012.1 hPa WNW 0.5 km/h 4.0 km/h 96 % 0.5 mm
06:29 18.4 °C 17.8 °C 1012.1 hPa SW 1.8 km/h 4.7 km/h 96 % 0.5 mm
06:34 18.4 °C 17.8 °C 1012.1 hPa SSW 1.8 km/h 4.7 km/h 96 % 0.5 mm
06:39 18.4 °C 17.8 °C 1012.1 hPa East 0.3 km/h 2.6 km/h 96 % 0.5 mm
06:44 18.5 °C 17.8 °C 1012.1 hPa South 0.2 km/h 3.2 km/h 96 % 0.5 mm
06:49 18.5 °C 17.8 °C 1012.1 hPa NNW 1.0 km/h 5.0 km/h 96 % 0.5 mm
06:54 18.5 °C 17.8 °C 1012.1 hPa NNW 1.3 km/h 5.0 km/h 96 % 0.3 mm
06:59 18.5 °C 17.8 °C 1012.1 hPa NNW 0.6 km/h 4.0 km/h 96 % 0.3 mm
07:04 18.5 °C 17.8 °C 1012.1 hPa South 1.4 km/h 6.1 km/h 96 % 0.3 mm
07:09 18.4 °C 17.8 °C 1012.1 hPa SSW 3.1 km/h 6.1 km/h 96 % 0.3 mm
07:14 18.4 °C 17.8 °C 1012.1 hPa SSW 1.9 km/h 5.8 km/h 96 % 0.3 mm
07:19 18.4 °C 17.8 °C 1012.1 hPa SW 0.3 km/h 2.6 km/h 96 % 0.0 mm
07:24 18.5 °C 17.8 °C 1012.1 hPa SW 0.2 km/h 3.5 km/h 96 % 0.0 mm
07:29 18.5 °C 17.8 °C 1012.1 hPa South 1.1 km/h 4.3 km/h 96 % 0.0 mm
07:34 18.5 °C 17.8 °C 1012.1 hPa SSE 1.3 km/h 4.3 km/h 96 % 0.0 mm
07:39 18.5 °C 17.8 °C 1012.1 hPa SSE 0.5 km/h 2.6 km/h 96 % 0.0 mm
07:44 18.5 °C 17.8 °C 1012.1 hPa South 0.2 km/h 2.6 km/h 96 % 0.0 mm
07:49 18.5 °C 17.8 °C 1012.1 hPa Calm     96 % 0.0 mm
07:54 18.6 °C 17.9 °C 1012.1 hPa Calm   2.6 km/h 96 % 0.0 mm
07:59 18.7 °C 18.1 °C 1012.1 hPa South 0.8 km/h 4.3 km/h 96 % 0.0 mm
08:04 18.9 °C 18.2 °C 1012.1 hPa South 2.6 km/h 5.0 km/h 96 % 0.0 mm
08:09 19.1 °C 18.4 °C 1012.1 hPa South 3.5 km/h 6.9 km/h 96 % 0.0 mm
08:14 19.1 °C 18.4 °C 1012.1 hPa SSW 4.5 km/h 6.9 km/h 96 % 0.0 mm
08:19 19.1 °C 18.4 °C 1012.1 hPa SSW 4.5 km/h 6.4 km/h 96 % 0.0 mm
08:24 19.3 °C 18.7 °C 1012.1 hPa South 4.0 km/h 9.0 km/h 96 % 0.0 mm
08:29 19.3 °C 18.7 °C 1012.1 hPa SW 4.3 km/h 9.0 km/h 96 % 0.0 mm
08:34 19.3 °C 18.7 °C 1012.1 hPa WSW 4.5 km/h 8.7 km/h 96 % 0.0 mm
08:40 19.4 °C 18.7 °C 1012.1 hPa WSW 3.7 km/h 6.4 km/h 96 % 0.0 mm
08:44 19.5 °C 18.8 °C 1012.1 hPa SSW 3.2 km/h 6.1 km/h 96 % 0.0 mm
08:49 19.5 °C 18.8 °C 1012.1 hPa South 3.7 km/h 6.1 km/h 96 % 0.0 mm
08:54 19.6 °C 18.9 °C 1012.1 hPa SSW 4.3 km/h 6.9 km/h 96 % 0.0 mm
08:59 19.7 °C 18.9 °C 1012.1 hPa SW 4.7 km/h 7.2 km/h 95 % 0.0 mm
09:04 19.8 °C 19.0 °C 1012.1 hPa WSW 4.2 km/h 7.2 km/h 95 % 0.0 mm
09:09 19.8 °C 19.0 °C 1012.1 hPa West 2.4 km/h 5.5 km/h 95 % 0.0 mm
09:14 19.9 °C 19.1 °C 1012.1 hPa NW 1.3 km/h 5.0 km/h 95 % 0.0 mm
09:19 20.2 °C 19.2 °C 1012.1 hPa West 1.9 km/h 5.0 km/h 94 % 0.0 mm
09:24 20.6 °C 19.6 °C 1012.1 hPa SW 3.2 km/h 7.9 km/h 94 % 0.0 mm
09:29 20.8 °C 19.8 °C 1012.1 hPa SSW 4.5 km/h 7.9 km/h 94 % 0.0 mm
09:34 21.0 °C 20.0 °C 1013.1 hPa SSW 5.5 km/h 7.9 km/h 94 % 0.0 mm
09:39 21.4 °C 20.2 °C 1013.1 hPa SSW 5.0 km/h 6.9 km/h 93 % 0.0 mm
09:44 21.6 °C 20.4 °C 1013.1 hPa SSW 4.8 km/h 6.9 km/h 93 % 0.0 mm
09:49 21.8 °C 20.4 °C 1012.1 hPa SSW 5.1 km/h 7.9 km/h 92 % 0.0 mm
09:54 22.1 °C 20.6 °C 1012.1 hPa SSW 5.3 km/h 7.9 km/h 91 % 0.0 mm
09:59 22.3 °C 20.6 °C 1012.1 hPa SW 5.3 km/h 10.5 km/h 90 % 0.0 mm
10:05 22.4 °C 20.7 °C 1011.1 hPa SW 5.1 km/h 10.5 km/h 90 % 0.0 mm
10:10 22.6 °C 20.9 °C 1011.1 hPa SSW 4.7 km/h 7.6 km/h 90 % 0.0 mm
10:15 22.9 °C 21.0 °C 1011.1 hPa SSW 5.5 km/h 9.0 km/h 89 % 0.0 mm
10:20 22.9 °C 20.8 °C 1012.1 hPa South 6.1 km/h 9.0 km/h 88 % 0.0 mm
10:25 23.0 °C 20.7 °C 1012.1 hPa SSW 5.1 km/h 7.6 km/h 87 % 0.0 mm
10:30 23.1 °C 20.6 °C 1012.1 hPa South 4.3 km/h 6.4 km/h 86 % 0.0 mm
10:35 23.2 °C 20.7 °C 1012.1 hPa South 3.4 km/h 6.4 km/h 86 % 0.0 mm
10:40 23.3 °C 20.6 °C 1012.1 hPa SSW 2.9 km/h 6.4 km/h 85 % 0.0 mm
10:45 23.4 °C 20.6 °C 1012.1 hPa SSW 3.1 km/h 5.5 km/h 84 % 0.0 mm
10:50 23.7 °C 21.0 °C 1012.1 hPa SSW 3.1 km/h 5.5 km/h 85 % 0.0 mm
10:55 23.8 °C 20.9 °C 1012.1 hPa South 3.7 km/h 5.8 km/h 84 % 0.0 mm
11:00 24.0 °C 20.9 °C 1012.1 hPa South 3.9 km/h 5.8 km/h 83 % 0.0 mm
11:05 24.3 °C 21.1 °C 1013.1 hPa SSW 3.9 km/h 6.4 km/h 82 % 0.0 mm
11:10 24.6 °C 21.1 °C 1013.1 hPa SSW 3.4 km/h 6.4 km/h 81 % 0.0 mm
11:15 24.7 °C 21.2 °C 1013.1 hPa SSW 3.2 km/h 6.9 km/h 81 % 0.0 mm
11:20 25.0 °C 21.3 °C 1012.1 hPa SSW 2.9 km/h 6.9 km/h 80 % 0.0 mm
11:25 25.0 °C 21.1 °C 1012.1 hPa SSE 1.8 km/h 5.0 km/h 79 % 0.0 mm
11:30 25.3 °C 21.4 °C 1012.1 hPa SSE 2.4 km/h 5.8 km/h 79 % 0.0 mm
11:35 25.6 °C 21.5 °C 1012.1 hPa South 2.9 km/h 5.8 km/h 78 % 0.0 mm
11:40 25.6 °C 20.8 °C 1012.1 hPa ESE 3.2 km/h 5.0 km/h 75 % 0.0 mm
11:45 25.7 °C 20.7 °C 1012.1 hPa ENE 3.1 km/h 6.1 km/h 74 % 0.0 mm
11:50 25.6 °C 20.2 °C 1013.1 hPa ENE 3.2 km/h 6.1 km/h 72 % 0.0 mm
11:55 25.5 °C 19.8 °C 1013.1 hPa NE 4.3 km/h 7.9 km/h 71 % 0.0 mm
12:00 25.5 °C 19.8 °C 1013.1 hPa NE 4.0 km/h 7.9 km/h 71 % 0.0 mm
12:05 25.9 °C 20.4 °C 1012.1 hPa NE 1.9 km/h 5.8 km/h 72 % 0.0 mm
12:10 26.3 °C 21.1 °C 1012.1 hPa SE 1.4 km/h 5.0 km/h 73 % 0.0 mm
12:15 26.6 °C 21.1 °C 1012.1 hPa South 2.6 km/h 5.0 km/h 72 % 0.0 mm
12:20 26.9 °C 21.2 °C 1012.1 hPa South 2.9 km/h 5.8 km/h 71 % 0.0 mm
12:25 27.2 °C 21.0 °C 1012.1 hPa South 2.7 km/h 6.9 km/h 69 % 0.0 mm
12:30 27.6 °C 21.4 °C 1012.1 hPa South 3.7 km/h 9.7 km/h 69 % 0.0 mm
12:35 27.8 °C 21.3 °C 1012.1 hPa SSW 5.0 km/h 9.7 km/h 68 % 0.0 mm
12:41 28.0 °C 20.3 °C 1012.1 hPa WSW 3.9 km/h 10.1 km/h 63 % 0.0 mm
12:46 28.1 °C 20.7 °C 1012.1 hPa WSW 4.2 km/h 10.5 km/h 64 % 0.0 mm
12:51 28.2 °C 20.7 °C 1012.1 hPa SW 5.0 km/h 10.5 km/h 64 % 0.0 mm
12:56 28.4 °C 20.9 °C 1012.1 hPa SSW 5.1 km/h 10.1 km/h 64 % 0.0 mm
13:01 28.6 °C 20.3 °C 1012.1 hPa South 4.8 km/h 10.1 km/h 61 % 0.0 mm
13:06 28.6 °C 20.9 °C 1012.1 hPa South 4.8 km/h 9.0 km/h 63 % 0.0 mm
13:11 28.8 °C 20.8 °C 1012.1 hPa SSW 5.5 km/h 9.3 km/h 62 % 0.0 mm
13:16 29.1 °C 20.8 °C 1012.1 hPa SW 5.3 km/h 11.9 km/h 61 % 0.0 mm
13:21 29.2 °C 20.9 °C 1011.1 hPa SW 6.0 km/h 11.9 km/h 61 % 0.0 mm
13:26 29.3 °C 21.0 °C 1011.1 hPa SSW 6.3 km/h 10.1 km/h 61 % 0.0 mm
13:31 29.4 °C 20.8 °C 1011.1 hPa South 6.3 km/h 9.7 km/h 60 % 0.0 mm
13:36 29.2 °C 20.1 °C 1011.1 hPa SW 5.8 km/h 9.7 km/h 58 % 0.0 mm
13:41 29.3 °C 20.7 °C 1011.1 hPa SW 4.5 km/h 9.7 km/h 60 % 0.0 mm
13:46 29.3 °C 20.4 °C 1011.1 hPa ESE 3.1 km/h 6.1 km/h 59 % 0.0 mm
13:54 29.3 °C 20.7 °C 1014.1 hPa SE 3.4 km/h 5.5 km/h 60 % 0.0 mm
13:59 29.4 °C 20.0 °C 1011.1 hPa West 5.8 km/h 13.7 km/h 57 % 0.0 mm
14:04 29.3 °C 19.9 °C 1011.1 hPa West 5.6 km/h 13.7 km/h 57 % 0.0 mm
14:09 29.5 °C 20.7 °C 1011.1 hPa WSW 5.3 km/h 12.6 km/h 59 % 0.0 mm
14:11 29.6 °C 20.4 °C 1011.1 hPa WSW 6.1 km/h 18.0 km/h 58 % 0.0 mm
14:16 29.7 °C 20.3 °C 1011.1 hPa SW 6.6 km/h 18.0 km/h 57 % 0.0 mm
14:21 29.5 °C 18.6 °C 1011.1 hPa West 5.1 km/h 10.5 km/h 52 % 0.0 mm
14:26 29.4 °C 18.8 °C 1011.1 hPa WSW 4.0 km/h 8.7 km/h 53 % 0.0 mm
14:31 29.0 °C 17.8 °C 1011.1 hPa SW 5.0 km/h 12.2 km/h 51 % 0.0 mm
14:34 28.9 °C 18.1 °C 1011.1 hPa WSW 5.6 km/h 12.2 km/h 52 % 0.0 mm
14:39 28.7 °C 17.9 °C 1011.1 hPa WSW 4.8 km/h 9.3 km/h 52 % 0.0 mm
14:44 28.7 °C 18.2 °C 1011.1 hPa West 5.0 km/h 14.3 km/h 53 % 0.0 mm
14:49 28.7 °C 18.2 °C 1011.1 hPa WSW 5.1 km/h 14.3 km/h 53 % 0.0 mm
14:54 28.7 °C 17.9 °C 1011.1 hPa SSW 5.3 km/h 13.7 km/h 52 % 0.0 mm
14:55 28.8 °C 17.3 °C 1011.1 hPa SSW 5.6 km/h 13.7 km/h 50 % 0.0 mm
15:00 29.0 °C 17.2 °C 1011.1 hPa SSW 6.4 km/h 13.7 km/h 49 % 0.0 mm
15:05 29.1 °C 17.6 °C 1011.1 hPa SW 6.0 km/h 10.8 km/h 50 % 0.0 mm
15:10 29.4 °C 18.2 °C 1011.1 hPa SW 4.3 km/h 12.2 km/h 51 % 0.0 mm
15:15 29.8 °C 17.9 °C 1011.1 hPa WSW 4.0 km/h 12.2 km/h 49 % 0.0 mm
15:20 29.9 °C 17.7 °C 1011.1 hPa SW 4.5 km/h 9.3 km/h 48 % 0.0 mm
15:25 30.2 °C 17.7 °C 1011.1 hPa SW 5.3 km/h 10.1 km/h 47 % 0.0 mm
15:30 30.5 °C 17.2 °C 1011.1 hPa SSW 6.4 km/h 16.9 km/h 45 % 0.0 mm
15:35 30.5 °C 15.8 °C 1011.1 hPa SW 8.2 km/h 23.3 km/h 41 % 0.0 mm
15:40 30.4 °C 15.3 °C 1011.1 hPa WSW 10.1 km/h 23.3 km/h 40 % 0.0 mm
15:45 30.5 °C 15.4 °C 1011.1 hPa WSW 9.5 km/h 19.1 km/h 40 % 0.0 mm
15:50 30.5 °C 15.4 °C 1011.1 hPa SW 8.7 km/h 17.7 km/h 40 % 0.0 mm
15:55 30.5 °C 15.0 °C 1011.1 hPa SW 9.5 km/h 17.7 km/h 39 % 0.0 mm
16:00 30.6 °C 15.4 °C 1011.1 hPa SW 8.4 km/h 13.7 km/h 40 % 0.0 mm
16:05 30.4 °C 15.7 °C 1011.1 hPa WSW 7.9 km/h 15.4 km/h 41 % 0.0 mm
16:10 30.4 °C 16.1 °C 1011.1 hPa West 7.9 km/h 15.4 km/h 42 % 0.0 mm
16:15 30.3 °C 16.3 °C 1011.1 hPa WSW 7.9 km/h 15.8 km/h 43 % 0.0 mm
16:20 30.2 °C 16.6 °C 1011.1 hPa WSW 6.8 km/h 15.8 km/h 44 % 0.0 mm
16:25 30.3 °C 17.1 °C 1011.1 hPa WSW 4.5 km/h 13.7 km/h 45 % 0.0 mm
16:30 30.2 °C 16.9 °C 1011.1 hPa WSW 4.2 km/h 13.7 km/h 45 % 0.0 mm
16:40 29.9 °C 16.7 °C 1011.1 hPa WNW 6.6 km/h 16.3 km/h 45 % 0.0 mm
16:46 29.8 °C 16.6 °C 1011.1 hPa WNW 6.8 km/h 10.5 km/h 45 % 0.0 mm
16:51 29.6 °C 16.8 °C 1011.1 hPa West 7.4 km/h 13.7 km/h 46 % 0.0 mm
16:56 29.7 °C 16.8 °C 1011.1 hPa WSW 5.6 km/h 13.7 km/h 46 % 0.0 mm
17:01 29.8 °C 16.9 °C 1011.1 hPa WSW 4.5 km/h 10.8 km/h 46 % 0.0 mm
17:06 29.5 °C 16.3 °C 1011.1 hPa West 5.0 km/h 9.3 km/h 45 % 0.0 mm
17:11 29.1 °C 15.6 °C 1011.1 hPa West 6.1 km/h 11.6 km/h 44 % 0.0 mm
17:16 29.3 °C 16.1 °C 1011.1 hPa WSW 7.2 km/h 12.6 km/h 45 % 0.0 mm
17:21 29.6 °C 16.4 °C 1011.1 hPa WSW 5.3 km/h 12.6 km/h 45 % 0.0 mm
17:26 29.7 °C 16.2 °C 1011.1 hPa WSW 4.0 km/h 13.7 km/h 44 % 0.0 mm
17:31 29.4 °C 15.9 °C 1011.1 hPa WSW 5.3 km/h 13.7 km/h 44 % 0.0 mm
17:36 28.9 °C 15.1 °C 1011.1 hPa West 6.3 km/h 9.7 km/h 43 % 0.0 mm
17:41 28.5 °C 14.7 °C 1011.1 hPa West 6.4 km/h 12.6 km/h 43 % 0.0 mm
17:46 28.3 °C 14.9 °C 1011.1 hPa West 5.8 km/h 12.6 km/h 44 % 0.0 mm
17:51 28.2 °C 14.4 °C 1011.1 hPa West 5.5 km/h 13.0 km/h 43 % 0.0 mm
17:56 27.9 °C 14.5 °C 1011.1 hPa West 6.3 km/h 13.0 km/h 44 % 0.0 mm
18:01 27.6 °C 14.6 °C 1011.1 hPa West 4.8 km/h 9.3 km/h 45 % 0.0 mm
18:06 27.3 °C 14.0 °C 1011.1 hPa West 2.6 km/h 5.8 km/h 44 % 0.0 mm
18:11 27.0 °C 14.4 °C 1011.1 hPa West 2.4 km/h 5.8 km/h 46 % 0.0 mm
18:16 26.9 °C 14.6 °C 1011.1 hPa SW 2.9 km/h 5.8 km/h 47 % 0.0 mm
18:21 26.8 °C 14.2 °C 1011.1 hPa SW 3.5 km/h 9.0 km/h 46 % 0.0 mm
18:26 26.7 °C 13.8 °C 1011.1 hPa WSW 4.8 km/h 11.9 km/h 45 % 0.0 mm
18:31 26.6 °C 13.7 °C 1011.1 hPa WSW 5.0 km/h 11.9 km/h 45 % 0.0 mm
18:36 26.5 °C 13.6 °C 1011.1 hPa West 4.8 km/h 9.3 km/h 45 % 0.0 mm
18:41 26.4 °C 13.5 °C 1011.1 hPa WSW 4.7 km/h 9.3 km/h 45 % 0.0 mm
18:46 26.3 °C 13.4 °C 1011.1 hPa WSW 5.5 km/h 10.8 km/h 45 % 0.0 mm
18:51 26.2 °C 13.3 °C 1012.1 hPa WSW 6.6 km/h 12.6 km/h 45 % 0.0 mm
18:56 26.1 °C 12.9 °C 1012.1 hPa West 6.6 km/h 12.6 km/h 44 % 0.0 mm
19:01 25.9 °C 12.7 °C 1012.1 hPa West 4.8 km/h 11.9 km/h 44 % 0.0 mm
19:06 25.7 °C 12.6 °C 1012.1 hPa WSW 4.7 km/h 12.2 km/h 44 % 0.0 mm
19:11 25.5 °C 12.0 °C 1012.1 hPa WSW 5.1 km/h 12.2 km/h 43 % 0.0 mm
19:16 25.3 °C 11.8 °C 1012.1 hPa WSW 4.7 km/h 9.3 km/h 43 % 0.0 mm
19:21 25.0 °C 11.6 °C 1012.1 hPa WSW 5.1 km/h 9.0 km/h 43 % 0.0 mm
19:26 24.8 °C 11.7 °C 1012.1 hPa WSW 4.0 km/h 7.9 km/h 44 % 0.0 mm
19:31 24.5 °C 11.4 °C 1012.1 hPa SW 2.9 km/h 7.9 km/h 44 % 0.0 mm
19:36 24.3 °C 11.3 °C 1012.1 hPa SSW 2.3 km/h 6.9 km/h 44 % 0.0 mm
19:41 23.9 °C 11.6 °C 1012.1 hPa SW 1.0 km/h 4.0 km/h 46 % 0.0 mm
19:46 23.5 °C 11.8 °C 1012.1 hPa WSW 0.6 km/h 4.3 km/h 48 % 0.0 mm
19:51 23.3 °C 12.0 °C 1012.1 hPa West 0.3 km/h 4.3 km/h 49 % 0.0 mm
19:56 22.8 °C 11.8 °C 1012.1 hPa West 0.6 km/h 3.5 km/h 50 % 0.0 mm
20:01 22.4 °C 12.1 °C 1012.1 hPa West 0.6 km/h 3.5 km/h 52 % 0.0 mm
20:06 22.1 °C 12.1 °C 1012.1 hPa NNW 1.0 km/h 4.0 km/h 53 % 0.0 mm
20:11 21.6 °C 13.0 °C 1012.1 hPa NNW 1.0 km/h 4.0 km/h 58 % 0.0 mm
20:16 21.2 °C 13.4 °C 1012.1 hPa Calm     61 % 0.0 mm
20:21 21.0 °C 13.2 °C 1012.1 hPa NNW 0.2 km/h 4.0 km/h 61 % 0.0 mm
20:26 20.8 °C 12.7 °C 1012.1 hPa NNW 0.6 km/h 4.0 km/h 60 % 0.0 mm
20:31 20.4 °C 12.9 °C 1012.1 hPa NNW 1.4 km/h 5.0 km/h 62 % 0.0 mm
20:36 20.2 °C 12.9 °C 1012.1 hPa NNW 2.3 km/h 5.0 km/h 63 % 0.0 mm
20:41 19.9 °C 13.3 °C 1012.1 hPa NNW 1.6 km/h 5.0 km/h 66 % 0.0 mm
20:46 19.6 °C 13.3 °C 1012.1 hPa Calm   1.4 km/h 67 % 0.0 mm
20:51 19.4 °C 13.3 °C 1011.1 hPa Calm   4.0 km/h 68 % 0.0 mm
20:56 19.1 °C 13.1 °C 1011.1 hPa NNW 0.6 km/h 4.0 km/h 68 % 0.0 mm
21:01 19.0 °C 13.2 °C 1011.1 hPa NNE 0.6 km/h 2.6 km/h 69 % 0.0 mm
21:06 18.8 °C 13.0 °C 1012.1 hPa NNE 0.2 km/h 2.1 km/h 69 % 0.0 mm
21:11 18.6 °C 13.0 °C 1012.1 hPa NNE 0.2 km/h 2.1 km/h 70 % 0.0 mm
21:16 18.3 °C 12.9 °C 1012.1 hPa Calm   4.3 km/h 71 % 0.0 mm
21:21 18.1 °C 12.9 °C 1012.1 hPa NNW 0.3 km/h 4.3 km/h 72 % 0.0 mm
21:26 17.9 °C 13.0 °C 1012.1 hPa North 1.0 km/h 4.0 km/h 73 % 0.0 mm
21:27 17.9 °C 13.0 °C 1012.1 hPa North 1.0 km/h 4.0 km/h 73 % 0.0 mm
21:32 17.7 °C 13.0 °C 1012.1 hPa NNE 0.6 km/h 4.0 km/h 74 % 0.0 mm
21:37 17.5 °C 12.8 °C 1012.1 hPa NW 1.3 km/h 4.3 km/h 74 % 0.0 mm
21:42 17.3 °C 12.8 °C 1012.1 hPa NW 2.4 km/h 4.3 km/h 75 % 0.0 mm
21:47 17.2 °C 12.7 °C 1012.1 hPa NW 1.3 km/h 4.3 km/h 75 % 0.0 mm
21:52 17.0 °C 12.7 °C 1012.1 hPa Calm   2.6 km/h 76 % 0.0 mm
21:57 16.8 °C 12.9 °C 1012.1 hPa Calm     78 % 0.0 mm
22:02 16.7 °C 12.8 °C 1012.1 hPa Calm     78 % 0.0 mm
22:07 16.6 °C 12.7 °C 1012.1 hPa Calm     78 % 0.0 mm
22:12 16.4 °C 12.7 °C 1012.1 hPa Calm     79 % 0.0 mm
22:17 16.3 °C 12.4 °C 1012.1 hPa NW 0.2 km/h 2.6 km/h 78 % 0.0 mm
22:22 16.2 °C 12.6 °C 1012.1 hPa NW 0.2 km/h 2.6 km/h 79 % 0.0 mm
22:27 16.1 °C 12.7 °C 1012.1 hPa Calm     80 % 0.0 mm
22:32 16.0 °C 12.6 °C 1012.1 hPa Calm     80 % 0.0 mm
22:37 15.9 °C 12.7 °C 1012.1 hPa Calm     81 % 0.0 mm
22:42 15.8 °C 12.6 °C 1012.1 hPa Calm     81 % 0.0 mm
22:47 15.7 °C 12.4 °C 1012.1 hPa Calm   3.2 km/h 81 % 0.0 mm
22:52 15.6 °C 12.3 °C 1012.1 hPa WNW 0.5 km/h 4.0 km/h 81 % 0.0 mm
22:57 15.5 °C 12.4 °C 1012.1 hPa WNW 0.5 km/h 4.0 km/h 82 % 0.0 mm
23:02 15.5 °C 12.4 °C 1012.1 hPa Calm   1.8 km/h 82 % 0.0 mm
23:07 15.4 °C 12.3 °C 1013.1 hPa Calm   1.8 km/h 82 % 0.0 mm
23:13 15.4 °C 12.5 °C 1013.1 hPa Calm     83 % 0.0 mm
23:18 15.3 °C 12.4 °C 1013.1 hPa Calm     83 % 0.0 mm
23:23 15.2 °C 12.3 °C 1013.1 hPa Calm     83 % 0.0 mm
23:28 15.2 °C 12.3 °C 1013.1 hPa WNW 0.2 km/h 4.3 km/h 83 % 0.0 mm
23:33 15.1 °C 12.2 °C 1013.1 hPa WNW 0.2 km/h 4.3 km/h 83 % 0.0 mm
23:38 15.0 °C 12.1 °C 1013.1 hPa Calm   1.4 km/h 83 % 0.0 mm
23:43 14.9 °C 12.2 °C 1013.1 hPa Calm     84 % 0.0 mm
23:48 14.9 °C 12.2 °C 1013.1 hPa Calm     84 % 0.0 mm
23:53 14.8 °C 12.1 °C 1013.1 hPa Calm     84 % 0.0 mm
23:58 14.7 °C 12.0 °C 1013.1 hPa Calm     84 % 0.0 mm
Vremenska postaja Senovo
Podatki zbrani iz Weather Underground - 3 mb

Script developed by  Jim McMurry - jmcmurry@mwt.net Adapted for the template by  Wim van der Kuil - Leuven-Template.eu

Vremenski podatki so objavljeni na:

WeatherCloud

Weather Underground

AWEKAS

HAMweather, WeatherForYou, PWS Weather

MapView

Geostik

Slovenia weather network

Oprema, ki se uporablja:

Vremenski program
Cumulus

Cumulus